Time;durP1;ratioP1;P1;durP2;ratioP2;P2;SDS_P1;SDS_P2;PMS_P1;PMS_P2;Temp;Humidity;BMP_temperature;BMP_pressure;BME280_temperature;BME280_humidity;BME280_pressure;Samples;Min_cycle;Max_cycle;Signal;HPM_P1;HPM_P2
2021/08/23 00:00:16;;;;;;;9.27;3.05;;;19.90;89.60;;;;;;5005403;28;20053;-79
2021/08/23 00:02:42;;;;;;;9.93;3.53;;;19.90;89.60;;;;;;5004004;28;20073;-78
2021/08/23 00:05:08;;;;;;;6.80;2.53;;;19.90;89.60;;;;;;5008996;28;20033;-78
2021/08/23 00:07:34;;;;;;;8.98;2.50;;;19.90;89.50;;;;;;5003704;28;20126;-78
2021/08/23 00:10:00;;;;;;;6.47;2.95;;;19.90;89.50;;;;;;5005451;28;20533;-78
2021/08/23 00:12:26;;;;;;;7.82;2.80;;;19.90;89.50;;;;;;5010850;28;20363;-78
2021/08/23 00:14:53;;;;;;;7.82;2.70;;;19.90;89.50;;;;;;5001155;28;20034;-78
2021/08/23 00:17:19;;;;;;;11.32;3.70;;;19.90;89.40;;;;;;5009895;28;20442;-78
2021/08/23 00:19:45;;;;;;;7.97;2.55;;;19.90;90.00;;;;;;5005212;28;20073;-78
2021/08/23 00:22:20;;;;;;;11.27;2.53;;;19.90;89.20;;;;;;5009591;28;20044;-78
2021/08/23 00:24:47;;;;;;;7.03;2.55;;;19.90;89.20;;;;;;5004260;28;20092;-79
2021/08/23 00:27:13;;;;;;;12.63;2.75;;;19.90;89.10;;;;;;5004804;28;20034;-85
2021/08/23 00:29:39;;;;;;;8.20;2.47;;;19.90;89.60;;;;;;5007967;28;20536;-75
2021/08/23 00:32:05;;;;;;;6.43;3.15;;;19.90;88.90;;;;;;5005495;28;20041;-75
2021/08/23 00:34:30;;;;;;;9.73;2.75;;;19.90;88.80;;;;;;5003515;28;20018;-75
2021/08/23 00:36:59;;;;;;;7.45;2.47;;;19.90;88.70;;;;;;5000076;28;20382;-74
2021/08/23 00:39:24;;;;;;;5.72;2.22;;;19.90;88.60;;;;;;5003077;28;20057;-74
2021/08/23 00:41:50;;;;;;;6.65;2.45;;;19.80;88.40;;;;;;5014444;28;20458;-74
2021/08/23 00:44:15;;;;;;;7.00;3.00;;;19.80;88.30;;;;;;5006151;28;20035;-74
2021/08/23 00:46:41;;;;;;;12.52;2.97;;;19.80;88.20;;;;;;5010015;28;20033;-74
2021/08/23 00:49:08;;;;;;;7.10;2.75;;;19.90;88.20;;;;;;5003021;28;20025;-74
2021/08/23 00:51:33;;;;;;;7.63;2.50;;;19.90;88.30;;;;;;5009843;28;20026;-74
2021/08/23 00:53:59;;;;;;;7.78;2.95;;;19.80;88.20;;;;;;4998112;28;20045;-74
2021/08/23 00:56:25;;;;;;;6.68;2.60;;;19.80;88.20;;;;;;5008082;28;20108;-74
2021/08/23 00:58:50;;;;;;;8.02;2.65;;;19.80;88.20;;;;;;5013035;28;20030;-75
2021/08/23 01:01:53;;;;;;;8.43;2.60;;;19.70;88.10;;;;;;5003435;28;20042;-74
2021/08/23 01:04:32;;;;;;;5.38;2.35;;;19.70;88.20;;;;;;4997672;28;20049;-74
2021/08/23 01:07:01;;;;;;;4.53;2.45;;;19.70;88.20;;;;;;5009197;28;20030;-74
2021/08/23 01:09:30;;;;;;;6.03;2.50;;;19.70;88.10;;;;;;5005877;28;20037;-74
2021/08/23 01:11:56;;;;;;;6.68;2.58;;;19.70;88.20;;;;;;5012768;28;20034;-74
2021/08/23 01:14:22;;;;;;;7.05;3.13;;;19.70;88.10;;;;;;5007647;28;20038;-74
2021/08/23 01:16:48;;;;;;;7.70;2.90;;;19.70;88.10;;;;;;5008238;28;20034;-75
2021/08/23 01:19:16;;;;;;;5.88;3.40;;;19.70;88.10;;;;;;5012756;28;20104;-74
2021/08/23 01:21:42;;;;;;;8.05;3.60;;;19.70;88.10;;;;;;5003946;28;20124;-75
2021/08/23 01:24:10;;;;;;;6.97;3.40;;;19.70;88.10;;;;;;5008225;28;20030;-74
2021/08/23 01:26:41;;;;;;;9.27;2.88;;;19.70;88.10;;;;;;4994952;28;20043;-74
2021/08/23 01:29:11;;;;;;;4.72;3.00;;;19.60;88.00;;;;;;4995814;28;20084;-75
2021/08/23 01:31:56;;;;;;;7.35;3.40;;;19.60;88.00;;;;;;4995275;28;20038;-74
2021/08/23 01:34:23;;;;;;;9.02;2.88;;;19.70;88.00;;;;;;5007015;28;20054;-74
2021/08/23 01:36:50;;;;;;;11.27;2.85;;;19.70;87.90;;;;;;5003375;28;20129;-74
2021/08/23 01:39:16;;;;;;;10.95;3.17;;;19.70;88.00;;;;;;5000026;28;20430;-74
2021/08/23 01:41:42;;;;;;;6.28;2.80;;;19.60;87.90;;;;;;5007226;28;20068;-74
2021/08/23 01:44:08;;;;;;;10.30;3.10;;;19.70;88.00;;;;;;5007624;28;20062;-75
2021/08/23 01:46:34;;;;;;;11.00;3.33;;;19.70;88.00;;;;;;5010588;28;20053;-75
2021/08/23 01:49:05;;;;;;;10.50;3.13;;;19.70;88.10;;;;;;5011184;28;20492;-74
2021/08/23 01:51:31;;;;;;;7.57;3.20;;;19.70;88.10;;;;;;5001963;28;20422;-74
2021/08/23 01:53:57;;;;;;;8.35;3.35;;;19.60;88.20;;;;;;5002812;28;20034;-74
2021/08/23 01:56:23;;;;;;;16.50;3.53;;;19.60;88.20;;;;;;5016746;28;20106;-74
2021/08/23 01:58:48;;;;;;;8.32;2.65;;;19.60;88.30;;;;;;5011410;28;20541;-74
2021/08/23 02:01:14;;;;;;;15.32;3.78;;;19.60;88.40;;;;;;5001214;28;20367;-74
2021/08/23 02:03:40;;;;;;;11.65;3.30;;;19.60;88.60;;;;;;5009038;28;20088;-74
2021/08/23 02:06:09;;;;;;;15.20;3.17;;;19.60;88.70;;;;;;5006561;28;20022;-74
2021/08/23 02:08:34;;;;;;;6.57;2.97;;;19.60;88.90;;;;;;5009273;28;20026;-74
2021/08/23 02:11:00;;;;;;;5.60;2.47;;;19.70;88.90;;;;;;5004220;28;20492;-74
2021/08/23 02:13:26;;;;;;;4.35;2.40;;;19.60;88.90;;;;;;4996930;28;20034;-74
2021/08/23 02:15:52;;;;;;;8.05;2.30;;;19.70;89.50;;;;;;5013440;28;20105;-74
2021/08/23 02:18:17;;;;;;;8.65;3.05;;;19.50;88.70;;;;;;5012333;28;20064;-74
2021/08/23 02:20:43;;;;;;;9.77;3.08;;;19.60;88.60;;;;;;5011441;28;20038;-74
2021/08/23 02:23:09;;;;;;;9.57;3.13;;;19.60;88.50;;;;;;5013388;28;20408;-74
2021/08/23 02:25:34;;;;;;;12.95;3.03;;;19.60;88.50;;;;;;5009789;28;20056;-75
2021/08/23 02:28:00;;;;;;;10.23;2.60;;;19.60;88.40;;;;;;5012762;28;20030;-75
2021/08/23 02:30:26;;;;;;;7.13;2.83;;;19.50;88.30;;;;;;5009732;28;20034;-74
2021/08/23 02:32:51;;;;;;;10.43;2.53;;;19.60;88.40;;;;;;5011171;28;20026;-74
2021/08/23 02:35:18;;;;;;;8.48;2.97;;;19.60;88.40;;;;;;5000405;28;20045;-75
2021/08/23 02:37:43;;;;;;;8.38;2.95;;;19.50;88.30;;;;;;5001079;28;20026;-74
2021/08/23 02:40:10;;;;;;;8.38;2.53;;;19.60;88.40;;;;;;5005385;28;20038;-75
2021/08/23 02:42:36;;;;;;;9.30;2.90;;;19.60;88.40;;;;;;4998988;28;20096;-74
2021/08/23 02:45:02;;;;;;;5.00;3.00;;;19.60;88.50;;;;;;4999057;28;20452;-75
2021/08/23 02:47:28;;;;;;;10.80;2.88;;;19.60;88.50;;;;;;5011318;28;20026;-74
2021/08/23 02:49:54;;;;;;;7.70;2.58;;;19.60;88.50;;;;;;4998677;28;20504;-75
2021/08/23 02:52:19;;;;;;;6.68;2.88;;;19.50;88.50;;;;;;5011944;28;20036;-74
2021/08/23 02:54:45;;;;;;;7.63;2.70;;;19.60;88.60;;;;;;5008426;28;20034;-74
2021/08/23 02:57:10;;;;;;;7.68;2.78;;;19.60;88.60;;;;;;5001056;28;20079;-74
2021/08/23 02:59:36;;;;;;;16.27;3.75;;;19.60;88.50;;;;;;4999033;28;20449;-74
2021/08/23 03:02:02;;;;;;;9.32;2.75;;;19.60;88.70;;;;;;5004314;28;20029;-74
2021/08/23 03:04:28;;;;;;;8.32;2.58;;;19.60;88.50;;;;;;5001105;28;20371;-75
2021/08/23 03:06:54;;;;;;;8.57;2.70;;;19.60;88.50;;;;;;5002860;28;20026;-75
2021/08/23 03:09:20;;;;;;;9.57;2.45;;;19.60;88.50;;;;;;5004197;28;20030;-75
2021/08/23 03:11:46;;;;;;;12.82;2.85;;;19.60;88.40;;;;;;5008139;28;20464;-74
2021/08/23 03:14:11;;;;;;;18.95;3.30;;;19.60;88.40;;;;;;4995749;28;20031;-75
2021/08/23 03:16:37;;;;;;;4.53;2.10;;;19.60;88.30;;;;;;4996253;28;20036;-75
2021/08/23 03:19:05;;;;;;;8.60;2.63;;;19.50;88.20;;;;;;5012138;28;20084;-75
2021/08/23 03:21:31;;;;;;;8.30;2.70;;;19.60;88.30;;;;;;5000071;28;20050;-75
2021/08/23 03:23:57;;;;;;;7.05;2.53;;;19.50;88.10;;;;;;5011400;28;20034;-74
2021/08/23 03:26:22;;;;;;;9.32;2.67;;;19.50;88.10;;;;;;5010493;28;20104;-75
2021/08/23 03:28:48;;;;;;;9.55;2.78;;;19.50;88.00;;;;;;5001712;28;20088;-75
2021/08/23 03:31:14;;;;;;;9.52;3.28;;;19.50;88.00;;;;;;5001613;28;20030;-74
2021/08/23 03:33:39;;;;;;;12.82;2.28;;;19.50;87.90;;;;;;5009127;28;20454;-74
2021/08/23 03:36:08;;;;;;;8.55;2.90;;;19.50;88.00;;;;;;5013435;28;20030;-74
2021/08/23 03:38:33;;;;;;;5.03;2.33;;;19.50;87.90;;;;;;5012550;28;20037;-74
2021/08/23 03:40:59;;;;;;;7.57;2.33;;;19.50;88.00;;;;;;5010706;28;20794;-74
2021/08/23 03:43:25;;;;;;;11.65;2.63;;;19.50;88.00;;;;;;5012519;28;20044;-75
2021/08/23 03:45:50;;;;;;;7.30;2.58;;;19.40;87.90;;;;;;5010275;28;20030;-75
2021/08/23 03:48:16;;;;;;;7.05;2.60;;;19.40;87.90;;;;;;5004742;28;20096;-75
2021/08/23 03:50:45;;;;;;;8.57;2.72;;;19.40;88.00;;;;;;5007056;28;20033;-75
2021/08/23 03:53:13;;;;;;;10.20;2.05;;;19.40;88.00;;;;;;5000244;28;20121;-75
2021/08/23 03:55:39;;;;;;;9.63;2.20;;;19.40;88.10;;;;;;5012115;28;20116;-75
2021/08/23 03:58:04;;;;;;;8.43;2.35;;;19.40;88.20;;;;;;5010605;28;20379;-74
2021/08/23 04:00:32;;;;;;;7.90;2.33;;;19.40;88.20;;;;;;5015590;28;20037;-74
2021/08/23 04:02:58;;;;;;;6.03;2.60;;;19.40;88.30;;;;;;5004357;28;20038;-75
2021/08/23 04:05:24;;;;;;;6.95;2.25;;;19.30;89.00;;;;;;5005622;28;20034;-74
2021/08/23 04:07:49;;;;;;;10.68;3.22;;;19.30;88.40;;;;;;5003234;28;20446;-75
2021/08/23 04:10:16;;;;;;;5.38;2.63;;;19.30;88.40;;;;;;5004108;28;20462;-75
2021/08/23 04:12:41;;;;;;;8.73;2.88;;;19.30;88.50;;;;;;5008425;28;20125;-75
2021/08/23 04:15:07;;;;;;;8.73;2.80;;;19.30;88.50;;;;;;5002813;28;20030;-75
2021/08/23 04:17:33;;;;;;;7.53;2.45;;;19.30;88.60;;;;;;5013785;28;20026;-74
2021/08/23 04:20:01;;;;;;;9.48;2.42;;;19.30;88.60;;;;;;5015436;28;20566;-74
2021/08/23 04:22:27;;;;;;;8.40;2.42;;;19.20;88.60;;;;;;5002410;28;20030;-74
2021/08/23 04:24:52;;;;;;;15.93;3.15;;;19.30;88.60;;;;;;5016369;28;20061;-74
2021/08/23 04:27:18;;;;;;;9.05;2.67;;;19.20;88.50;;;;;;5004936;28;20030;-74
2021/08/23 04:29:44;;;;;;;4.47;2.15;;;19.20;88.50;;;;;;5006111;28;20032;-74
2021/08/23 04:32:10;;;;;;;6.32;2.38;;;19.20;88.50;;;;;;5010721;28;20036;-75
2021/08/23 04:34:35;;;;;;;3.72;2.30;;;19.20;88.50;;;;;;5003004;28;20087;-74
2021/08/23 04:37:03;;;;;;;8.02;2.85;;;19.20;88.50;;;;;;5004319;28;20034;-74
2021/08/23 04:39:33;;;;;;;5.63;2.33;;;19.20;88.50;;;;;;4998422;28;20034;-74
2021/08/23 04:42:00;;;;;;;8.50;2.97;;;19.10;88.60;;;;;;5014860;28;20065;-74
2021/08/23 04:44:29;;;;;;;11.88;2.42;;;19.10;88.60;;;;;;5013117;28;20033;-75
2021/08/23 04:46:55;;;;;;;11.18;2.50;;;19.10;88.60;;;;;;5002619;28;20033;-75
2021/08/23 04:49:20;;;;;;;14.55;2.70;;;19.20;88.70;;;;;;5014887;28;20025;-74
2021/08/23 04:51:46;;;;;;;6.75;2.40;;;19.10;88.60;;;;;;5012932;28;20488;-74
2021/08/23 04:54:12;;;;;;;5.45;2.05;;;19.10;88.70;;;;;;5014595;28;20041;-74
2021/08/23 04:56:37;;;;;;;7.45;2.83;;;19.10;89.30;;;;;;5013102;28;20026;-79
2021/08/23 04:59:03;;;;;;;13.35;2.70;;;19.10;88.70;;;;;;5013049;28;20092;-79
2021/08/23 05:01:29;;;;;;;16.08;2.70;;;19.10;88.90;;;;;;5009318;28;20091;-75
2021/08/23 05:03:55;;;;;;;10.15;2.20;;;19.10;89.00;;;;;;5000753;28;20466;-76
2021/08/23 05:06:21;;;;;;;11.50;2.28;;;19.10;89.00;;;;;;5008258;28;20493;-75
2021/08/23 05:08:47;;;;;;;11.43;2.58;;;19.10;89.20;;;;;;5007322;28;20360;-77
2021/08/23 05:11:12;;;;;;;7.80;2.22;;;19.10;89.30;;;;;;5007792;28;20036;-76
2021/08/23 05:13:38;;;;;;;7.97;2.70;;;19.00;89.40;;;;;;5011588;28;20034;-80
2021/08/23 05:16:04;;;;;;;8.68;2.72;;;19.00;89.50;;;;;;5007812;28;20109;-77
2021/08/23 05:18:30;;;;;;;11.05;2.45;;;19.00;89.70;;;;;;5011602;28;20033;-76
2021/08/23 05:20:58;;;;;;;10.57;2.97;;;19.00;89.90;;;;;;4997123;28;20041;-76
2021/08/23 05:23:23;;;;;;;11.65;2.70;;;19.00;90.00;;;;;;5008106;28;20030;-74
2021/08/23 05:25:49;;;;;;;8.43;2.60;;;19.10;90.20;;;;;;5001958;28;20457;-76
2021/08/23 05:28:14;;;;;;;8.73;2.45;;;19.00;90.20;;;;;;5005762;28;20034;-77
2021/08/23 05:30:40;;;;;;;10.60;2.90;;;19.10;90.40;;;;;;5004802;28;20037;-76
2021/08/23 05:33:06;;;;;;;8.00;2.67;;;19.00;90.40;;;;;;5003311;28;20364;-76
2021/08/23 05:35:31;;;;;;;12.10;3.20;;;19.00;90.50;;;;;;5011531;28;20034;-77
2021/08/23 05:37:57;;;;;;;10.90;2.58;;;19.00;90.70;;;;;;5004444;28;20371;-76
2021/08/23 05:40:24;;;;;;;6.60;2.45;;;19.00;90.80;;;;;;5002291;28;20053;-77
2021/08/23 05:42:50;;;;;;;9.70;2.70;;;19.00;90.80;;;;;;5009177;28;20482;-76
2021/08/23 05:45:17;;;;;;;11.07;2.85;;;19.00;91.00;;;;;;5008371;28;20184;-81
2021/08/23 05:47:43;;;;;;;11.52;2.83;;;19.00;91.00;;;;;;5013214;28;20022;-82
2021/08/23 05:50:09;;;;;;;11.73;2.72;;;19.00;91.10;;;;;;5006817;28;20044;-82
2021/08/23 05:52:38;;;;;;;14.68;3.95;;;19.00;91.20;;;;;;5012466;28;20117;-80
2021/08/23 05:55:04;;;;;;;6.95;2.17;;;18.90;91.20;;;;;;5012900;28;20026;-83
2021/08/23 05:57:29;;;;;;;6.00;2.55;;;19.00;91.20;;;;;;5009005;28;20026;-90
2021/08/23 05:59:55;;;;;;;10.95;2.60;;;19.00;91.20;;;;;;5007756;28;20048;-83
2021/08/23 06:02:21;;;;;;;7.60;2.35;;;19.00;91.20;;;;;;5005957;28;20026;-82
2021/08/23 06:04:47;;;;;;;8.98;2.55;;;19.00;91.20;;;;;;5006237;28;20477;-82
2021/08/23 06:07:18;;;;;;;4.38;1.95;;;19.10;91.20;;;;;;5009490;28;20381;-84
2021/08/23 06:09:51;;;;;;;7.78;1.80;;;19.00;91.20;;;;;;4999053;28;20070;-82
2021/08/23 06:12:17;;;;;;;3.08;1.50;;;19.00;90.90;;;;;;5001701;28;20050;-80
2021/08/23 06:14:43;;;;;;;7.60;2.13;;;19.00;90.80;;;;;;5009450;28;20501;-80
2021/08/23 06:17:08;;;;;;;5.10;1.90;;;19.00;90.90;;;;;;5001216;28;20025;-81
2021/08/23 06:19:35;;;;;;;6.15;1.70;;;19.00;90.90;;;;;;5000068;28;20066;-78
2021/08/23 06:22:01;;;;;;;4.93;2.50;;;19.00;91.00;;;;;;4999525;28;20026;-79
2021/08/23 06:24:26;;;;;;;7.95;1.98;;;19.00;90.90;;;;;;5003019;28;20561;-80
2021/08/23 06:26:52;;;;;;;5.55;2.50;;;19.10;90.80;;;;;;5003209;28;20108;-80
2021/08/23 06:29:18;;;;;;;5.15;1.83;;;19.10;90.80;;;;;;5000877;28;20101;-81
2021/08/23 06:31:44;;;;;;;5.68;1.65;;;19.00;90.70;;;;;;5003589;28;20105;-81
2021/08/23 06:34:09;;;;;;;14.43;1.98;;;19.10;90.70;;;;;;5000503;28;20474;-80
2021/08/23 06:36:36;;;;;;;9.00;2.15;;;19.10;90.70;;;;;;5003276;28;20026;-76
2021/08/23 06:39:02;;;;;;;5.93;1.60;;;19.10;90.60;;;;;;5001503;28;20096;-78
2021/08/23 06:41:28;;;;;;;8.68;2.10;;;19.10;90.50;;;;;;5005050;28;20065;-75
2021/08/23 06:43:55;;;;;;;8.57;2.17;;;19.10;90.50;;;;;;5003711;28;20026;-80
2021/08/23 06:46:20;;;;;;;6.95;1.58;;;19.10;90.40;;;;;;5003122;28;20074;-80
2021/08/23 06:48:46;;;;;;;7.47;2.00;;;19.20;90.50;;;;;;4998093;28;20050;-80
2021/08/23 06:51:15;;;;;;;6.63;1.83;;;19.20;90.40;;;;;;4999130;28;20096;-80
2021/08/23 06:53:40;;;;;;;5.75;1.58;;;19.30;90.40;;;;;;5003062;28;20037;-80
2021/08/23 06:56:06;;;;;;;6.95;1.70;;;19.20;90.70;;;;;;4999195;28;20351;-80
2021/08/23 06:58:32;;;;;;;4.60;1.63;;;19.30;90.40;;;;;;5001016;28;20502;-80
2021/08/23 07:00:58;;;;;;;2.75;1.52;;;19.30;90.40;;;;;;5002192;28;20165;-80
2021/08/23 07:03:24;;;;;;;6.68;2.00;;;19.30;90.20;;;;;;4995571;28;20113;-80
2021/08/23 07:05:50;;;;;;;3.20;1.60;;;19.30;90.10;;;;;;4999714;28;20502;-80
2021/08/23 07:08:16;;;;;;;5.90;1.50;;;19.40;90.00;;;;;;5004880;28;20073;-78
2021/08/23 07:10:42;;;;;;;3.13;1.70;;;19.30;90.10;;;;;;5010505;28;20030;-79
2021/08/23 07:13:07;;;;;;;6.22;1.98;;;19.30;90.10;;;;;;5009793;28;20018;-79
2021/08/23 07:15:33;;;;;;;5.65;1.83;;;19.40;90.10;;;;;;5002439;28;20478;-81
2021/08/23 07:17:59;;;;;;;5.18;1.65;;;19.40;90.00;;;;;;5009462;28;20485;-79
2021/08/23 07:20:24;;;;;;;11.93;1.75;;;19.40;90.00;;;;;;5009057;28;20494;-79
2021/08/23 07:22:50;;;;;;;3.08;1.50;;;19.50;90.00;;;;;;5010380;28;20025;-78
2021/08/23 07:25:16;;;;;;;4.60;1.67;;;19.50;89.90;;;;;;5008943;28;20041;-78
2021/08/23 07:27:41;;;;;;;5.63;1.27;;;19.50;89.60;;;;;;5006626;28;20036;-78
2021/08/23 07:30:08;;;;;;;6.15;1.77;;;19.50;89.30;;;;;;5010426;28;20030;-79
2021/08/23 07:32:33;;;;;;;5.25;1.70;;;19.60;89.40;;;;;;5011149;28;20030;-79
2021/08/23 07:35:00;;;;;;;5.45;1.70;;;19.60;89.20;;;;;;5011860;28;20033;-80
2021/08/23 07:37:25;;;;;;;2.25;1.55;;;19.60;89.40;;;;;;5011865;28;20022;-79
2021/08/23 07:39:54;;;;;;;6.07;2.55;;;19.60;89.40;;;;;;5009266;28;20060;-82
2021/08/23 07:42:20;;;;;;;11.32;1.63;;;19.60;89.10;;;;;;5012780;28;20544;-78
2021/08/23 07:44:46;;;;;;;3.65;1.50;;;19.60;89.10;;;;;;5011048;28;20026;-78
2021/08/23 07:47:11;;;;;;;5.57;1.70;;;19.60;88.70;;;;;;5009592;28;20064;-74
2021/08/23 07:49:37;;;;;;;5.63;1.70;;;19.60;88.30;;;;;;5010814;28;20032;-81
2021/08/23 07:52:03;;;;;;;4.82;1.45;;;19.70;88.20;;;;;;5002212;28;20528;-81
2021/08/23 07:54:29;;;;;;;3.85;0.73;;;19.70;88.20;;;;;;5009578;28;20023;-76
2021/08/23 07:56:54;;;;;;;1.77;0.98;;;19.70;88.70;;;;;;5009508;28;20439;-83
2021/08/23 07:59:20;;;;;;;2.17;1.08;;;19.70;89.10;;;;;;4996088;28;20053;-81
2021/08/23 08:01:46;;;;;;;1.33;1.20;;;19.70;89.20;;;;;;5005914;28;20022;-77
2021/08/23 08:04:13;;;;;;;3.83;1.00;;;19.60;89.40;;;;;;5007974;28;20558;-73
2021/08/23 08:06:38;;;;;;;1.52;1.27;;;19.60;89.40;;;;;;5008802;28;20026;-73
2021/08/23 08:09:04;;;;;;;1.75;0.80;;;19.60;89.10;;;;;;5008527;28;20370;-82
2021/08/23 08:11:29;;;;;;;2.33;1.00;;;19.60;89.20;;;;;;5015867;28;20029;-77
2021/08/23 08:13:55;;;;;;;1.95;0.90;;;19.70;89.40;;;;;;5014157;28;20044;-80
2021/08/23 08:16:21;;;;;;;1.73;1.00;;;19.60;89.40;;;;;;5006631;28;20064;-78
2021/08/23 08:18:47;;;;;;;1.52;0.77;;;19.70;89.20;;;;;;5001702;28;20041;-79
2021/08/23 08:21:12;;;;;;;3.67;0.98;;;19.70;89.30;;;;;;5006047;28;20033;-81
2021/08/23 08:23:38;;;;;;;2.15;1.20;;;19.70;89.10;;;;;;5003744;28;20489;-84
2021/08/23 08:26:04;;;;;;;8.73;1.00;;;19.70;88.70;;;;;;5005476;28;20056;-82
2021/08/23 08:28:32;;;;;;;0.77;0.60;;;19.70;88.70;;;;;;5003340;28;20498;-82
2021/08/23 08:30:59;;;;;;;0.80;0.68;;;19.70;88.90;;;;;;5008117;28;20128;-81
2021/08/23 08:33:26;;;;;;;1.52;1.00;;;19.70;88.80;;;;;;5010759;28;20034;-82
2021/08/23 08:35:57;;;;;;;7.88;0.75;;;19.80;88.60;;;;;;5002973;28;20056;-81
2021/08/23 08:38:24;;;;;;;7.05;1.50;;;19.80;88.30;;;;;;4999562;28;20031;-78
2021/08/23 08:40:50;;;;;;;2.28;1.08;;;19.70;88.10;;;;;;4996276;28;20073;-85
2021/08/23 08:43:16;;;;;;;1.50;0.65;;;19.80;88.50;;;;;;5002267;28;20022;-76
2021/08/23 08:45:43;;;;;;;0.65;0.65;;;19.90;88.40;;;;;;5004098;28;20060;-82
2021/08/23 08:48:09;;;;;;;3.38;0.77;;;19.90;88.60;;;;;;5011053;28;20030;-77
2021/08/23 08:50:35;;;;;;;0.45;0.45;;;19.80;88.40;;;;;;5005080;28;20080;-80
2021/08/23 08:53:05;;;;;;;6.07;0.95;;;19.80;88.70;;;;;;5009250;28;20437;-74
2021/08/23 08:55:35;;;;;;;1.63;1.00;;;19.80;88.30;;;;;;5014116;28;20053;-77
2021/08/23 08:58:06;;;;;;;4.93;0.85;;;19.80;88.10;;;;;;5003326;28;20031;-83
2021/08/23 09:00:34;;;;;;;1.08;0.80;;;19.90;87.50;;;;;;5010673;28;20643;-83
2021/08/23 09:03:00;;;;;;;1.70;0.77;;;19.90;87.60;;;;;;5011338;28;20037;-83
2021/08/23 09:05:38;;;;;;;2.95;0.57;;;19.90;87.90;;;;;;5007428;28;20041;-74
2021/08/23 09:08:05;;;;;;;11.70;1.30;;;20.00;87.60;;;;;;5010653;28;20037;-74
2021/08/23 09:10:41;;;;;;;4.30;1.92;;;20.00;87.20;;;;;;5003679;28;20054;-73
2021/08/23 09:13:09;;;;;;;0.38;0.38;;;20.00;86.90;;;;;;5001283;28;20505;-73
2021/08/23 09:15:37;;;;;;;5.20;1.08;;;20.00;87.50;;;;;;5014165;28;20072;-75
2021/08/23 09:18:07;;;;;;;1.17;0.65;;;20.10;86.80;;;;;;5012021;28;20022;-70
2021/08/23 09:20:37;;;;;;;2.00;0.85;;;20.10;86.90;;;;;;5010816;28;20038;-77
2021/08/23 09:23:10;;;;;;;3.45;0.73;;;20.10;87.00;;;;;;5008865;28;20025;-83
2021/08/23 09:25:37;;;;;;;1.98;0.80;;;20.10;86.80;;;;;;5010939;28;20047;-81
2021/08/23 09:28:04;;;;;;;1.17;0.60;;;20.20;86.50;;;;;;5004839;28;20114;-81
2021/08/23 09:30:30;;;;;;;1.83;0.73;;;20.20;86.80;;;;;;5012349;28;20484;-82
2021/08/23 09:32:58;;;;;;;1.38;0.90;;;20.20;86.60;;;;;;4999995;28;20121;-80
2021/08/23 09:35:33;;;;;;;0.57;0.57;;;20.20;86.50;;;;;;5012561;28;20041;-83
2021/08/23 09:37:59;;;;;;;4.47;0.60;;;20.30;86.40;;;;;;5007265;28;20065;-82
2021/08/23 09:40:33;;;;;;;3.13;0.82;;;20.30;86.00;;;;;;5006309;28;20061;-80
2021/08/23 09:43:11;;;;;;;1.35;0.85;;;20.30;86.00;;;;;;4999070;28;20029;-78
2021/08/23 09:45:37;;;;;;;0.95;0.70;;;20.30;85.70;;;;;;5006411;28;20031;-79
2021/08/23 09:48:05;;;;;;;1.10;0.75;;;20.40;85.90;;;;;;5005187;28;20041;-77
2021/08/23 09:50:42;;;;;;;0.63;0.60;;;20.40;85.70;;;;;;5000324;28;20077;-79
2021/08/23 09:53:11;;;;;;;0.70;0.70;;;20.40;85.60;;;;;;5002235;28;20058;-78
2021/08/23 09:55:39;;;;;;;1.00;0.80;;;20.40;85.60;;;;;;5006265;28;20064;-78
2021/08/23 09:58:07;;;;;;;0.60;0.43;;;20.50;85.70;;;;;;4999945;28;20053;-79
2021/08/23 10:00:34;;;;;;;1.45;0.77;;;20.40;85.20;;;;;;5004494;28;20034;-77
2021/08/23 10:03:02;;;;;;;4.82;1.08;;;20.50;84.90;;;;;;4999055;28;20026;-78
2021/08/23 10:05:28;;;;;;;1.00;0.55;;;20.50;83.90;;;;;;5003414;28;20118;-78
2021/08/23 10:07:54;;;;;;;2.65;1.08;;;20.50;85.10;;;;;;5006676;28;20037;-78
2021/08/23 10:10:21;;;;;;;5.35;1.02;;;20.50;83.70;;;;;;4999531;28;20041;-79
2021/08/23 10:12:47;;;;;;;4.57;1.38;;;20.60;83.70;;;;;;5004048;28;20045;-78
2021/08/23 10:15:13;;;;;;;0.82;0.63;;;20.60;84.40;;;;;;4995223;28;20042;-80
2021/08/23 10:17:44;;;;;;;3.00;0.57;;;20.60;84.20;;;;;;5000131;28;20041;-77
2021/08/23 10:20:11;;;;;;;2.45;0.88;;;20.70;84.30;;;;;;5008524;28;20033;-78
2021/08/23 10:22:39;;;;;;;1.17;0.60;;;20.70;83.90;;;;;;5011794;28;20034;-80
2021/08/23 10:25:07;;;;;;;3.85;0.90;;;20.70;84.10;;;;;;5008952;28;20797;-78
2021/08/23 10:27:34;;;;;;;4.13;2.13;;;20.70;83.70;;;;;;4994809;28;20478;-71
2021/08/23 10:30:00;;;;;;;1.65;0.93;;;20.70;83.20;;;;;;5003598;28;20147;-79
2021/08/23 10:32:40;;;;;;;1.75;0.70;;;20.70;82.60;;;;;;5009910;28;20026;-79
2021/08/23 10:35:44;;;;;;;2.83;1.00;;;20.70;83.30;;;;;;5011669;28;20038;-79
2021/08/23 10:38:14;;;;;;;;;;;20.80;83.20;;;;;;4998338;28;20053;-78
2021/08/23 10:40:40;;;;;;;2.45;0.82;;;20.80;83.70;;;;;;5005932;28;20044;-79
2021/08/23 10:43:27;;;;;;;0.73;0.73;;;20.80;83.20;;;;;;5002213;28;20493;-78
2021/08/23 10:45:53;;;;;;;0.50;0.50;;;20.80;83.20;;;;;;5003597;28;20481;-75
2021/08/23 10:48:20;;;;;;;4.47;1.13;;;20.80;83.60;;;;;;5002454;28;20081;-76
2021/08/23 10:50:58;;;;;;;3.20;1.15;;;20.80;83.10;;;;;;5003664;28;20033;-77
2021/08/23 10:53:36;;;;;;;3.08;1.33;;;20.90;82.30;;;;;;4998575;28;20037;-83
2021/08/23 10:56:15;;;;;;;4.35;1.80;;;21.00;82.90;;;;;;5003285;28;20033;-78
2021/08/23 10:58:41;;;;;;;6.47;0.93;;;21.00;81.50;;;;;;4997911;28;20038;-79
2021/08/23 11:01:19;;;;;;;2.33;1.40;;;21.00;81.10;;;;;;5010261;28;20398;-79
2021/08/23 11:03:44;;;;;;;2.40;1.25;;;21.00;81.20;;;;;;5001558;28;20037;-73
2021/08/23 11:06:10;;;;;;;4.43;1.40;;;21.10;81.30;;;;;;5000904;28;20046;-76
2021/08/23 11:08:36;;;;;;;5.50;1.58;;;21.10;80.60;;;;;;4999122;28;20030;-76
2021/08/23 11:11:14;;;;;;;2.72;1.40;;;21.20;80.60;;;;;;5004131;28;20041;-76
2021/08/23 11:13:41;;;;;;;4.15;1.40;;;21.20;80.20;;;;;;5001151;28;20541;-75
2021/08/23 11:16:08;;;;;;;6.82;3.03;;;21.20;80.10;;;;;;5002099;28;20022;-75
2021/08/23 11:19:27;;;;;;;7.22;1.60;;;21.30;80.40;;;;;;5000730;28;20355;-77
2021/08/23 11:22:00;;;;;;;6.28;1.65;;;21.30;79.70;;;;;;5009236;28;20044;-78
2021/08/23 11:24:27;;;;;;;3.13;1.25;;;21.40;80.00;;;;;;5000992;28;20497;-78
2021/08/23 11:26:55;;;;;;;3.15;1.40;;;21.40;80.20;;;;;;5005220;28;20029;-78
2021/08/23 11:29:21;;;;;;;3.72;1.48;;;21.40;79.70;;;;;;5000655;28;20045;-78
2021/08/23 11:32:07;;;;;;;6.05;1.50;;;21.40;78.80;;;;;;5000825;28;20018;-77
2021/08/23 11:34:34;;;;;;;2.10;1.42;;;21.40;79.70;;;;;;5001582;28;20038;-77
2021/08/23 11:37:08;;;;;;;3.80;1.88;;;21.50;79.40;;;;;;5006631;28;20485;-77
2021/08/23 11:39:35;;;;;;;6.22;1.50;;;21.50;79.50;;;;;;5004197;28;20061;-77
2021/08/23 11:42:06;;;;;;;3.05;1.38;;;21.50;79.50;;;;;;5010321;28;20037;-77
2021/08/23 11:44:36;;;;;;;9.55;1.38;;;21.50;78.90;;;;;;5007588;28;20030;-78
2021/08/23 11:47:04;;;;;;;6.10;1.70;;;21.60;79.20;;;;;;5006985;28;20117;-77
2021/08/23 11:49:33;;;;;;;5.07;1.75;;;21.60;78.90;;;;;;5007431;28;20112;-77
2021/08/23 11:52:09;;;;;;;3.65;1.63;;;21.60;79.50;;;;;;5005088;28;20034;-77
2021/08/23 11:54:35;;;;;;;12.27;2.88;;;21.70;79.60;;;;;;5009351;28;20034;-77
2021/08/23 11:57:05;;;;;;;3.85;1.52;;;21.60;79.40;;;;;;5008755;28;20081;-78
2021/08/23 11:59:31;;;;;;;3.65;1.30;;;21.70;79.00;;;;;;4992991;28;20137;-79
2021/08/23 12:02:07;;;;;;;4.75;1.92;;;21.70;79.00;;;;;;5011387;28;20109;-78
2021/08/23 12:04:33;;;;;;;4.53;1.77;;;21.80;79.40;;;;;;5005575;28;20082;-78
2021/08/23 12:06:58;;;;;;;4.63;1.48;;;21.80;78.70;;;;;;5008355;28;20528;-76
2021/08/23 12:09:24;;;;;;;4.35;1.15;;;21.80;78.90;;;;;;5012015;28;20096;-77
2021/08/23 12:11:50;;;;;;;3.00;1.48;;;21.90;78.70;;;;;;5006461;28;20033;-77
2021/08/23 12:14:18;;;;;;;4.07;1.70;;;21.90;79.20;;;;;;5004439;28;20076;-78
2021/08/23 12:16:44;;;;;;;6.72;1.85;;;21.90;78.30;;;;;;5001361;28;20038;-79
2021/08/23 12:19:12;;;;;;;3.47;1.60;;;22.00;78.10;;;;;;5015488;28;20043;-78
2021/08/23 12:21:39;;;;;;;6.72;1.65;;;22.00;78.60;;;;;;5011801;28;20512;-78
2021/08/23 12:24:24;;;;;;;4.53;1.33;;;22.00;79.00;;;;;;5015254;28;20129;-79
2021/08/23 12:26:52;;;;;;;2.83;1.10;;;22.00;78.60;;;;;;4974086;28;20133;-79
2021/08/23 12:29:22;;;;;;;1.50;1.00;;;22.10;79.10;;;;;;4971631;28;20410;-82
2021/08/23 12:32:08;;;;;;;2.88;1.15;;;22.10;80.50;;;;;;4974153;28;20479;-80
2021/08/23 12:34:52;;;;;;;3.58;0.98;;;22.00;80.90;;;;;;4961917;28;20023;-80
2021/08/23 12:37:19;;;;;;;1.35;0.70;;;22.10;81.30;;;;;;4971293;28;20073;-79
2021/08/23 12:39:47;;;;;;;6.90;1.58;;;22.00;82.00;;;;;;4976634;28;20039;-79
2021/08/23 12:42:13;;;;;;;1.65;0.85;;;22.00;81.20;;;;;;4964648;28;20114;-74
2021/08/23 12:44:39;;;;;;;3.13;1.27;;;22.00;81.70;;;;;;4965934;28;20115;-78
2021/08/23 12:47:06;;;;;;;1.02;0.75;;;22.00;81.40;;;;;;4974967;28;20375;-78